Metar Cercanos

 

LEPA - Palma De Mallorc, Spain
Distance from station: ONO 38km
Actualización: 12/12/2017 09:00
Few Clouds
Few Clouds
 Viento del varies
Viento: varies 2 km/h
Temperatura: 9°C
Rocío: 7°C
Humedad: 87%
Barómetro: 1010 hPa
Clouds: Few Clouds
Visibility: 10 km
Cloud details: Few Clouds 762 m
2017/12/12 08:00 LEPA 120800Z VRB01KT 9999 FEW025 09/07 Q1010 NOSIG
LEMH - Mahon/Menorca Is, Spain
Distance from station: ENE 105km
Actualización: 12/12/2017 09:00
Parcialmente nuboso
Parcialmente nuboso
 Viento del NO
Viento: NO 4 km/h
Temperatura: 10°C
Rocío: 7°C
Humedad: 82%
Barómetro: 1010 hPa
Clouds: Parcialmente nuboso
Visibility: 10 km
Cloud details: Few Clouds 610 m
Parcialmente nuboso 1372 m
2017/12/12 08:00 LEMH 120800Z 32002KT 9999 FEW020 SCT045 10/07 Q1010
 
LEIB - Ibiza/Es Codola, Spain
Distance from station: OSO 165km
Actualización: 12/12/2017 09:00
Parcialmente nuboso
Parcialmente nuboso
 Viento del varies
Viento: varies 2 km/h
Temperatura: 10°C
Rocío: 6°C
Humedad: 76%
Barómetro: 1011 hPa
Clouds: Parcialmente nuboso
Visibility: 10 km
Cloud details: Few Clouds 671 m
Parcialmente nuboso 1219 m
2017/12/12 08:00 LEIB 120800Z VRB01KT 9999 FEW022 SCT040 10/06 Q1011 NOSIG
LEBL - Barcelona Airpor, Spain
Distance from station: NNO 225km
Actualización: 12/12/2017 09:00
Few Clouds
Few Clouds
 Viento del NNO
Viento: NNO 19 km/h
Temperatura: 7°C
Sensación frio: 4°C
Rocío: 2°C
Humedad: 71%
Barómetro: 1011 hPa
Clouds: Few Clouds
Visibility: 10 km
Cloud details: Few Clouds 762 m
2017/12/12 08:00 LEBL 120800Z 33010KT 300V360 9999 FEW025 07/02 Q1011 NOSIG
 
LEVC - Valencia (civ/Mi, Spain
Distance from station: NO 188km
Actualización: 12/12/2017 09:00
Muy nuboso
Muy nuboso
 Viento del O
Viento: O 9 km/h
Temperatura: 8°C
Sensación frio: 6°C
Rocío: 3°C
Humedad: 71%
Barómetro: 1012 hPa
Clouds: Muy nuboso
Visibility: 10 km
Cloud details: Muy nuboso 1372 m
2017/12/12 08:00 LEVC 120800Z 27005KT 9999 BKN045 08/03 Q1012 NOSIG
LEGE - Gerona/Costa Bra, Spain
Distance from station: N 276km
Actualización: 12/12/2017 09:00
Muy nuboso
Muy nuboso
 Viento del calm
Viento: Calma
Temperatura: 3°C
Rocío: 3°C
Humedad: 100%
Barómetro: 1011 hPa
Clouds: Muy nuboso
Visibility: 10 km
Cloud details: Muy nuboso 914 m
2017/12/12 08:00 LEGE 120800Z 00000KT 9999 BKN030 03/03 Q1011
 
LEAL - Alicante/El Alte, Spain
Distance from station: OSO 344km
Actualización: 12/12/2017 09:00
Despejado
Despejado
 Viento del O
Viento: O 17 km/h
Temperatura: 9°C
Sensación frio: 7°C
Rocío: 4°C
Humedad: 71%
Barómetro: 1012 hPa
Resumen: Despejado
Visibility: greater than 10 km
2017/12/12 08:00 LEAL 120800Z 27009KT 240V300 CAVOK 09/04 Q1012 NOSIG
LEAM - Almeria Airport, Spain
Distance from station: SSO 56km
Actualización: 12/12/2017 09:00
Despejado
Despejado
 Viento del varies
Viento: varies 2 km/h
Temperatura: 10°C
Rocío: 2°C
Humedad: 58%
Barómetro: 1012 hPa
Resumen: Despejado
Visibility: greater than 10 km
2017/12/12 08:00 LEAM 120800Z VRB01KT CAVOK 10/02 Q1012
 
LEZG - Zaragoza (mil/Ci, Spain
Distance from station: NO 431km
Actualización: 12/12/2017 09:00
Few Clouds
Few Clouds
 Viento del O
Viento: O 24 km/h
Temperatura: 4°C
Sensación frio: -1°C
Rocío: 0°C
Humedad: 75%
Barómetro: 1014 hPa
Clouds: Few Clouds
Visibility: 10 km
Cloud details: Few Clouds 1372 m
2017/12/12 08:00 LEZG 120800Z 27013KT 9999 FEW045 04/00 Q1014
LEMD - Madrid/Barajas, Spain
Distance from station: ONO 234km
Actualización: 12/12/2017 09:00
Despejado
Despejado
 Viento del SSE
Viento: SSE 6 km/h
Temperatura: 1°C
Rocío: -2°C
Humedad: 81%
Barómetro: 1015 hPa
Resumen: Despejado
Visibility: greater than 10 km
2017/12/12 08:00 LEMD 120800Z 16003KT 130V220 CAVOK 01/M02 Q1015 NOSIG
 
LEGR - Granada Airport, Spain
Distance from station: OSO 62km
Actualización: 12/12/2017 09:00
Patches of fog, Muy nuboso
Patches of fog, Muy nuboso
 Viento del O
Viento: O 4 km/h
Temperatura: 3°C
Rocío: 3°C
Humedad: 100%
Barómetro: 1014 hPa
Resumen: Patches of Fog
Clouds: Muy nuboso
Visibility: 8 km
Cloud details: Few Clouds 610 m
Muy nuboso 1067 m
2017/12/12 08:00 LEGR 120800Z 27002KT 8000 BCFG FEW020 BKN035 03/03 Q1014
LEMG - Malaga (civ/Mil), Spain
Distance from station: OSO 227km
Actualización: 12/12/2017 09:00
Few Clouds
Few Clouds
 Viento del ONO
Viento: ONO 26 km/h
Temperatura: 9°C
Sensación frio: 6°C
Rocío: 4°C
Humedad: 71%
Barómetro: 1014 hPa
Clouds: Few Clouds
Visibility: 10 km
Cloud details: Few Clouds 610 m
2017/12/12 08:00 LEMG 120800Z 29014KT 9999 FEW020 09/04 Q1014 NOSIG
 
LEZL - Sevilla (civ/Mil, Spain
Distance from station: S 318km
Actualización: 12/12/2017 09:00
Despejado
Despejado
 Viento del calm
Viento: Calma
Temperatura: 7°C
Rocío: 3°C
Humedad: 76%
Barómetro: 1016 hPa
Resumen: Despejado
Visibility: greater than 10 km
2017/12/12 08:00 LEZL 120800Z 00000KT CAVOK 07/03 Q1016 NOSIG
LEVT - Vitoria, Spain
Distance from station: NO 226km
Actualización: 12/12/2017 09:00
Lluvia débil, Muy nuboso
Lluvia débil, Muy nuboso
 Viento del OSO
Viento: OSO 6 km/h
Temperatura: 2°C
Rocío: 2°C
Humedad: 100%
Barómetro: 1015 hPa
Resumen: Lluvia débil
Clouds: Muy nuboso
Visibility: 6 km
Cloud details: Muy nuboso 427 m
Muy nuboso 914 m
2017/12/12 08:00 LEVT 120800Z 24003KT 6000 -RA BKN014 BKN030 02/02 Q1015
 
LEBB - Bilbao/Sondica, Spain
Distance from station: NNO 235km
Actualización: 12/12/2017 09:00
Muy nuboso
Muy nuboso
 Viento del varies
Viento: varies 4 km/h
Temperatura: 6°C
Rocío: 4°C
Humedad: 87%
Barómetro: 1016 hPa
Clouds: Muy nuboso
Visibility: 10 km
Cloud details: Few Clouds 762 m
Muy nuboso 1067 m
2017/12/12 08:00 LEBB 120800Z VRB02KT 9999 FEW025 BKN035 06/04 Q1016 TEMPO SHRA SCT025TCU
LESO - San Sebastian/Fu, Spain
Distance from station: N 231km
Actualización: 12/12/2017 09:00
Few Clouds
Few Clouds
 Viento del S
Viento: S 9 km/h
Temperatura: 5°C
Sensación frio: 3°C
Rocío: 3°C
Humedad: 87%
Barómetro: 1015 hPa
Clouds: Few Clouds
Visibility: 10 km
Cloud details: Few Clouds 762 m
Few Clouds 914 m
2017/12/12 08:00 LESO 120800Z 17005KT 130V210 9999 FEW025 FEW030TCU 05/03 Q1015
 
LEVD - Valladolid(Mil/C, Spain
Distance from station: ONO 239km
Actualización: 12/12/2017 09:00
Despejado
Despejado
 Viento del SO
Viento: SO 11 km/h
Temperatura: -2°C
Sensación frio: -6°C
Rocío: -4°C
Humedad: 86%
Barómetro: 1015 hPa
Resumen: Despejado
Visibility: greater than 10 km
2017/12/12 08:00 LEVD 120800Z 22006KT CAVOK M02/M04 Q1015
LESA - Salamanca (civ/M, Spain
Distance from station: ONO 349km
Actualización: 12/12/2017 09:00
Despejado
Despejado
 Viento del varies
Viento: varies 4 km/h
Temperatura: -3°C
Rocío: -3°C
Humedad: 100%
Barómetro: 1016 hPa
Resumen: Despejado
Visibility: greater than 10 km
2017/12/12 08:00 LESA 120800Z VRB02KT CAVOK M03/M03 Q1016
 
LEXJ - Santander/Paraya, Spain
Distance from station: NNO 247km
Actualización: 12/12/2017 09:00
Lluvia débil, Muy nuboso
Lluvia débil, Muy nuboso
 Viento del SSO
Viento: SSO 11 km/h
Temperatura: 7°C
Sensación frio: 5°C
Rocío: 4°C
Humedad: 81%
Barómetro: 1015 hPa
Resumen: Lluvia débil
Clouds: Muy nuboso
Visibility: 10 km
Cloud details: Parcialmente nuboso 1006 m
Muy nuboso 1524 m
2017/12/12 08:00 LEXJ 120800Z 21006KT 9999 -RA SCT033 BKN050 07/04 Q1015
LEAS - Asturias/Aviles, Spain
Distance from station: NO 214km
Actualización: 12/12/2017 09:00
Muy nuboso
Muy nuboso
 Viento del SO
Viento: SO 20 km/h
Temperatura: 7°C
Sensación frio: 4°C
Rocío: 5°C
Humedad: 87%
Barómetro: 1016 hPa
Clouds: Muy nuboso
Visibility: 10 km
Cloud details: Few Clouds 853 m
Few Clouds 1097 m
Muy nuboso 1768 m
2017/12/12 08:00 LEAS 120800Z 23011KT 9999 FEW028 FEW036TCU BKN058 07/05 Q1016 TEMPO SHRA
 
LECO - La Coruna/Alvedr, Spain
Distance from station: ONO 222km
Actualización: 12/12/2017 09:00
Parcialmente nuboso
Parcialmente nuboso
 Viento del SSE
Viento: SSE 7 km/h
Temperatura: 5°C
Sensación frio: 3°C
Rocío: 5°C
Humedad: 100%
Barómetro: 1017 hPa
Clouds: Parcialmente nuboso
Visibility: 10 km
Cloud details: Parcialmente nuboso 914 m
2017/12/12 08:00 LECO 120800Z 16004KT 9999 SCT030 05/05 Q1017 NOSIG
LEVX - Vigo/Peinador, Spain
Distance from station: O 214km
Actualización: 12/12/2017 09:00
Patches of fog, Parcialmente nuboso
Patches of fog, Parcialmente nuboso
 Viento del SO
Viento: SO 9 km/h
Temperatura: 3°C
Sensación frio: 0°C
Rocío: 3°C
Humedad: 100%
Barómetro: 1018 hPa
Resumen: Patches of Fog
Clouds: Parcialmente nuboso
Visibility: 10 km
Cloud details: Few Clouds 30 m
Parcialmente nuboso 945 m
2017/12/12 08:00 LEVX 120800Z 22005KT 9999 BCFG FEW001 SCT031 03/03 Q1018 TEMPO 1500 BCFG